Time;durP1;ratioP1;P1;durP2;ratioP2;P2;SDS_P1;SDS_P2;PMS_P1;PMS_P2;Temp;Humidity;BMP_temperature;BMP_pressure;BME280_temperature;BME280_humidity;BME280_pressure;Samples;Min_cycle;Max_cycle;Signal;HPM_P1;HPM_P2
2021/07/28 00:00:55;;;;;;;;;9.00;8.00;;;;;25.42;54.73;98223.06;4869271;28;102537;-87
2021/07/28 00:03:22;;;;;;;;;7.00;6.67;;;;;25.42;54.59;98214.78;4863083;28;102713;-87
2021/07/28 00:05:49;;;;;;;;;10.00;8.67;;;;;25.43;54.74;98213.66;4867419;28;104260;-87
2021/07/28 00:08:17;;;;;;;;;9.33;7.33;;;;;25.42;54.42;98213.94;4880919;28;104738;-87
2021/07/28 00:10:48;;;;;;;;;11.00;10.00;;;;;25.41;54.45;98212.31;4838230;28;104856;-87
2021/07/28 00:13:20;;;;;;;;;9.67;9.67;;;;;25.42;54.63;98211.19;4885258;28;102272;-87
2021/07/28 00:15:55;;;;;;;;;11.67;10.33;;;;;25.41;54.66;98215.88;4884861;28;103123;-87
2021/07/28 00:18:42;;;;;;;;;9.33;9.00;;;;;25.41;54.54;98213.13;4882964;28;102680;-87
2021/07/28 00:24:08;;;;;;;;;11.00;9.00;;;;;25.39;54.53;98196.03;4815072;28;102660;-86
2021/07/28 00:26:40;;;;;;;;;8.00;7.33;;;;;25.38;54.20;98199.09;4872394;28;107482;-87
2021/07/28 00:29:16;;;;;;;;;9.33;9.00;;;;;25.37;54.36;98209.34;4889314;28;102339;-87
2021/07/28 00:31:50;;;;;;;;;9.00;8.33;;;;;25.37;54.40;98205.75;4859546;28;102339;-86
2021/07/28 00:34:23;;;;;;;;;11.00;8.33;;;;;25.37;54.50;98205.75;4884061;28;104277;-87
2021/07/28 00:37:01;;;;;;;;;8.00;8.00;;;;;25.36;54.20;98202.16;4890223;28;107832;-87
2021/07/28 00:39:37;;;;;;;;;9.00;7.33;;;;;25.36;54.31;98193.84;4862251;28;104297;-87
2021/07/28 00:42:11;;;;;;;;;10.00;9.00;;;;;25.35;54.36;98202.47;4885198;28;102593;-86
2021/07/28 00:44:44;;;;;;;;;9.00;8.00;;;;;25.34;54.11;98201.66;4874003;28;103659;-86
2021/07/28 00:47:11;;;;;;;;;10.33;9.00;;;;;25.33;54.15;98194.47;4881331;28;104054;-87
2021/07/28 00:49:38;;;;;;;;;10.00;10.00;;;;;25.32;53.91;98190.88;4887882;28;102499;-87
2021/07/28 00:52:06;;;;;;;;;10.00;10.00;;;;;25.31;54.10;98194.75;4880521;28;110156;-87
2021/07/28 00:54:33;;;;;;;;;10.00;9.33;;;;;25.30;53.97;98189.56;4878041;28;102201;-86
2021/07/28 00:57:00;;;;;;;;;11.00;8.67;;;;;25.30;54.02;98179.31;4895135;28;103931;-87
2021/07/28 00:59:28;;;;;;;;;9.33;9.00;;;;;25.29;53.94;98179.59;4890814;28;102504;-87
2021/07/28 01:01:55;;;;;;;;;6.67;6.67;;;;;25.28;53.72;98181.53;4853213;28;102224;-87
2021/07/28 01:04:22;;;;;;;;;9.00;9.00;;;;;25.29;53.70;98176.84;4850543;28;102455;-87
2021/07/28 01:06:49;;;;;;;;;8.00;7.00;;;;;25.28;53.80;98175.19;4846650;28;104489;-87
2021/07/28 01:09:16;;;;;;;;;8.67;8.00;;;;;25.28;53.93;98172.41;4858215;28;102308;-87
2021/07/28 01:11:46;;;;;;;;;7.33;7.33;;;;;25.28;53.88;98175.19;4826606;28;104405;-87
2021/07/28 01:14:25;;;;;;;;;9.67;8.33;;;;;25.28;53.79;98172.41;4853241;28;102360;-87
2021/07/28 01:16:57;;;;;;;;;10.00;8.00;;;;;25.27;53.78;98176.31;4889354;28;103647;-87
2021/07/28 01:19:39;;;;;;;;;9.00;7.00;;;;;25.28;53.66;98183.50;4877890;28;103652;-87
2021/07/28 01:22:13;;;;;;;;;7.67;7.67;;;;;25.28;53.53;98189.03;4825840;28;102303;-87
2021/07/28 01:24:54;;;;;;;;;9.33;7.33;;;;;25.27;53.67;98181.84;4868194;28;102802;-87
2021/07/28 01:27:25;;;;;;;;;6.67;6.67;;;;;25.26;53.51;98188.53;4883377;28;103073;-87
2021/07/28 01:29:59;;;;;;;;;11.00;8.33;;;;;25.27;53.66;98187.38;4897830;28;102726;-87
2021/07/28 01:32:35;;;;;;;;;8.33;6.33;;;;;25.26;53.57;98189.31;4861431;28;102678;-87
2021/07/28 01:35:12;;;;;;;;;7.00;7.00;;;;;25.24;53.57;98193.53;4853378;28;102301;-86
2021/07/28 01:37:46;;;;;;;;;9.00;8.00;;;;;25.23;53.77;98189.13;4859425;28;103148;-86
2021/07/28 01:40:24;;;;;;;;;7.00;7.00;;;;;25.23;53.84;98180.81;4880643;28;103490;-87
2021/07/28 01:43:01;;;;;;;;;8.00;8.00;;;;;25.22;53.83;98173.63;4885036;28;102535;-87
2021/07/28 01:45:36;;;;;;;;;7.00;7.00;;;;;25.23;53.38;98178.06;4883822;28;103927;-87
2021/07/28 01:48:13;;;;;;;;;7.33;7.33;;;;;25.23;53.43;98178.06;4881125;28;107854;-86
2021/07/28 01:50:47;;;;;;;;;7.33;7.33;;;;;25.23;53.45;98178.06;4885031;28;102505;-87
2021/07/28 01:53:21;;;;;;;;;9.67;8.33;;;;;25.21;53.38;98180.31;4905802;28;103376;-87
2021/07/28 01:55:48;;;;;;;;;8.00;7.00;;;;;25.19;53.32;98177.84;4890717;28;102659;-87
2021/07/28 01:58:18;;;;;;;;;9.00;9.00;;;;;25.20;53.49;98175.91;4886544;28;105789;-87
2021/07/28 02:00:45;;;;;;;;;7.00;7.00;;;;;25.19;53.70;98185.31;4894983;28;106465;-87
2021/07/28 02:03:12;;;;;;;;;7.00;7.00;;;;;25.18;53.48;98178.97;4878872;28;102108;-87
2021/07/28 02:05:40;;;;;;;;;10.33;9.33;;;;;25.19;53.53;98182.56;4874881;28;102956;-87
2021/07/28 02:08:12;;;;;;;;;8.67;8.33;;;;;25.19;53.34;98185.31;4891115;28;104085;-87
2021/07/28 02:10:42;;;;;;;;;9.67;8.33;;;;;25.19;53.30;98182.56;4887323;28;104251;-86
2021/07/28 02:13:09;;;;;;;;;7.67;7.33;;;;;25.18;53.33;98180.91;4887564;28;102607;-87
2021/07/28 02:15:36;;;;;;;;;9.00;8.00;;;;;25.20;53.23;98167.59;4898026;28;102476;-87
2021/07/28 02:18:04;;;;;;;;;7.00;6.00;;;;;25.18;53.34;98180.91;4883836;28;104254;-87
2021/07/28 02:20:32;;;;;;;;;7.00;7.00;;;;;25.17;53.23;98184.81;4890864;28;102750;-87
2021/07/28 02:22:59;;;;;;;;;8.00;6.67;;;;;25.18;53.32;98175.38;4891442;28;102442;-87
2021/07/28 02:25:27;;;;;;;;;7.00;6.00;;;;;25.16;53.25;98184.00;4887864;28;102326;-87
2021/07/28 02:27:54;;;;;;;;;8.00;7.00;;;;;25.16;53.06;98174.88;4891028;28;104029;-87
2021/07/28 02:30:22;;;;;;;;;8.00;8.00;;;;;25.15;53.28;98182.34;4873298;28;103019;-87
2021/07/28 02:32:50;;;;;;;;;7.00;7.00;;;;;25.16;52.99;98178.47;4881261;28;102923;-87
2021/07/28 02:35:17;;;;;;;;;8.67;8.67;;;;;25.16;53.25;98166.56;4886133;28;102402;-87
2021/07/28 02:37:45;;;;;;;;;6.00;5.33;;;;;25.14;52.92;98169.63;4893963;28;104100;-87
2021/07/28 02:40:14;;;;;;;;;6.33;6.00;;;;;25.15;53.03;98174.06;4882774;28;104126;-87
2021/07/28 02:42:41;;;;;;;;;7.67;6.67;;;;;25.15;53.07;98167.69;4891401;28;102179;-86
2021/07/28 02:45:08;;;;;;;;;10.33;8.00;;;;;25.15;53.06;98173.22;4899811;28;102996;-87
2021/07/28 02:47:36;;;;;;;;;7.67;7.33;;;;;25.14;52.93;98174.34;4885290;28;104306;-87
2021/07/28 02:50:04;;;;;;;;;9.00;8.00;;;;;25.15;52.87;98176.00;4888473;28;103408;-87
2021/07/28 02:52:31;;;;;;;;;8.00;8.00;;;;;25.13;53.03;98175.47;4877286;28;104569;-87
2021/07/28 02:55:04;;;;;;;;;8.33;7.67;;;;;25.12;52.94;98182.16;4893526;28;102926;-87
2021/07/28 02:57:35;;;;;;;;;6.00;6.00;;;;;25.12;53.13;98187.69;4897803;28;109304;-87
2021/07/28 03:00:07;;;;;;;;;7.00;6.00;;;;;25.11;53.03;98181.34;4885192;28;103391;-87
2021/07/28 03:02:34;;;;;;;;;8.00;7.00;;;;;25.10;52.94;98176.91;4883430;28;102287;-87
2021/07/28 03:05:02;;;;;;;;;6.33;6.33;;;;;25.10;52.99;98184.41;4878171;28;102732;-87
2021/07/28 03:07:29;;;;;;;;;8.00;7.00;;;;;25.09;52.93;98179.97;4866357;28;104124;-87
2021/07/28 03:09:57;;;;;;;;;8.00;8.00;;;;;25.09;53.07;98178.03;4887458;28;102296;-87
2021/07/28 03:12:24;;;;;;;;;7.00;7.00;;;;;25.09;52.87;98171.69;4897444;28;103478;-87
2021/07/28 03:14:53;;;;;;;;;7.00;7.00;;;;;25.08;52.72;98165.31;4889606;28;102591;-88
2021/07/28 03:17:21;;;;;;;;;7.33;7.33;;;;;25.08;52.74;98167.28;4891531;28;104364;-87
2021/07/28 03:19:48;;;;;;;;;6.33;6.33;;;;;25.08;52.71;98170.84;4895528;28;102615;-87
2021/07/28 03:22:15;;;;;;;;;6.33;5.67;;;;;25.07;52.94;98166.47;4886340;28;103599;-87
2021/07/28 03:24:43;;;;;;;;;8.67;8.00;;;;;25.07;52.70;98168.41;4897559;28;102306;-87
2021/07/28 03:27:10;;;;;;;;;10.33;7.67;;;;;25.08;52.73;98159.00;4894881;28;108954;-87
2021/07/28 03:29:37;;;;;;;;;9.00;8.00;;;;;25.06;52.67;98159.28;4893064;28;105230;-86
2021/07/28 03:32:05;;;;;;;;;8.67;8.00;;;;;25.07;52.45;98151.81;4884020;28;102508;-87
2021/07/28 03:34:32;;;;;;;;;9.33;9.00;;;;;25.06;52.46;98152.94;4893016;28;102636;-87
2021/07/28 03:36:59;;;;;;;;;8.33;8.33;;;;;25.06;52.14;98153.75;4888611;28;104089;-87
2021/07/28 03:39:26;;;;;;;;;9.00;6.67;;;;;25.05;52.06;98148.53;4893972;28;102651;-87
2021/07/28 03:41:53;;;;;;;;;8.00;8.00;;;;;25.04;52.42;98163.47;4891779;28;112234;-87
2021/07/28 03:44:21;;;;;;;;;8.00;7.00;;;;;25.01;52.51;98162.16;4886699;28;104273;-87
2021/07/28 03:46:48;;;;;;;;;7.00;7.00;;;;;25.00;52.84;98165.22;4891848;28;104421;-87
2021/07/28 03:49:15;;;;;;;;;6.00;6.00;;;;;24.99;52.42;98160.81;4895385;28;102840;-87
2021/07/28 03:51:42;;;;;;;;;8.33;6.00;;;;;24.98;52.84;98148.13;4888569;28;102366;-86
2021/07/28 03:54:09;;;;;;;;;7.33;6.67;;;;;24.97;53.02;98140.94;4902472;28;102702;-86
2021/07/28 03:56:36;;;;;;;;;7.33;7.00;;;;;24.97;54.68;98140.94;4890631;28;109824;-87
2021/07/28 03:59:03;;;;;;;;;10.67;10.00;;;;;24.95;54.97;98132.13;4887207;28;103796;-87
2021/07/28 04:01:31;;;;;;;;;6.67;6.67;;;;;24.95;55.44;98140.44;4891359;28;102903;-87
2021/07/28 04:03:58;;;;;;;;;8.67;8.67;;;;;24.93;55.84;98132.44;4889519;28;106171;-87
2021/07/28 04:06:25;;;;;;;;;9.67;9.00;;;;;24.92;56.08;98132.72;4881563;28;104566;-87
2021/07/28 04:08:52;;;;;;;;;15.33;12.00;;;;;24.91;55.90;98131.91;4889661;28;102189;-87
2021/07/28 04:11:20;;;;;;;;;12.67;11.33;;;;;24.91;56.14;98125.53;4874097;28;102602;-87
2021/07/28 04:13:47;;;;;;;;;13.67;11.33;;;;;24.92;56.47;98127.19;4888688;28;102812;-86
2021/07/28 04:16:14;;;;;;;;;9.33;9.33;;;;;24.92;56.32;98130.78;4891339;28;104486;-87
2021/07/28 04:18:41;;;;;;;;;11.67;10.33;;;;;24.93;56.28;98121.38;4872450;28;103015;-85
2021/07/28 04:21:08;;;;;;;;;11.67;9.67;;;;;24.94;56.45;98127.72;4899217;28;103758;-88
2021/07/28 04:23:36;;;;;;;;;7.00;7.00;;;;;24.95;56.40;98126.59;4896762;28;102670;-91
2021/07/28 04:26:03;;;;;;;;;8.00;6.67;;;;;24.95;56.19;98121.88;4885738;28;103823;-90
2021/07/28 04:28:30;;;;;;;;;12.33;10.00;;;;;24.97;55.15;98124.34;4913881;28;103930;-91
2021/07/28 04:30:57;;;;;;;;;9.00;8.00;;;;;24.95;54.73;98130.16;4900940;28;102379;-90
2021/07/28 04:33:24;;;;;;;;;11.67;10.33;;;;;24.97;54.54;98127.09;4897453;28;103150;-90
2021/07/28 04:35:52;;;;;;;;;10.33;9.00;;;;;24.97;53.95;98127.09;4896404;28;102964;-90
2021/07/28 04:38:19;;;;;;;;;10.67;8.67;;;;;24.97;53.80;98119.63;4898031;28;102274;-90
2021/07/28 04:40:46;;;;;;;;;8.00;7.33;;;;;24.97;54.01;98124.34;4897882;28;102079;-90
2021/07/28 04:43:13;;;;;;;;;9.33;8.67;;;;;24.96;53.92;98128.22;4911379;28;102341;-90
2021/07/28 04:45:40;;;;;;;;;8.33;8.33;;;;;24.96;53.72;98117.16;4900175;28;103629;-91
2021/07/28 04:48:07;;;;;;;;;12.00;9.67;;;;;24.95;53.38;98116.34;4903422;28;101892;-91
2021/07/28 04:50:35;;;;;;;;;12.00;9.67;;;;;24.96;53.19;98111.63;4910201;28;102061;-90
2021/07/28 04:53:03;;;;;;;;;9.67;8.67;;;;;24.94;53.53;98113.88;4904612;28;101903;-90
2021/07/28 04:55:30;;;;;;;;;7.00;7.00;;;;;24.94;53.18;98108.34;4920671;28;103198;-90
2021/07/28 04:57:57;;;;;;;;;10.00;8.00;;;;;24.93;53.36;98112.25;4908476;28;101717;-91
2021/07/28 05:00:24;;;;;;;;;9.00;7.67;;;;;24.95;53.00;98112.78;4907880;28;102406;-90
2021/07/28 05:02:51;;;;;;;;;8.67;7.67;;;;;24.93;53.00;98113.06;4914440;28;104811;-91
2021/07/28 05:05:19;;;;;;;;;8.00;7.33;;;;;24.93;52.85;98118.59;4898897;28;103647;-90
2021/07/28 05:07:46;;;;;;;;;10.00;9.00;;;;;24.93;52.67;98118.59;4904596;28;102147;-90
2021/07/28 05:10:13;;;;;;;;;9.33;7.67;;;;;24.93;52.78;98118.59;4916095;28;101862;-88
2021/07/28 05:12:40;;;;;;;;;4.67;4.00;;;;;24.92;52.63;98116.94;4908474;28;102154;-90
2021/07/28 05:15:08;;;;;;;;;7.33;6.33;;;;;24.92;52.48;98118.91;4906229;28;110739;-90
2021/07/28 05:17:35;;;;;;;;;10.67;8.00;;;;;24.90;52.54;98119.22;4913422;28;101785;-90
2021/07/28 05:20:03;;;;;;;;;8.00;7.33;;;;;24.91;52.59;98114.47;4898943;28;102079;-90
2021/07/28 05:22:30;;;;;;;;;8.00;8.00;;;;;24.91;52.48;98114.47;4900561;28;102128;-90
2021/07/28 05:24:57;;;;;;;;;10.00;9.00;;;;;24.91;52.58;98122.78;4909718;28;103414;-90
2021/07/28 05:27:24;;;;;;;;;8.00;7.67;;;;;24.88;52.35;98122.28;4897145;28;102160;-89
2021/07/28 05:29:52;;;;;;;;;7.00;7.00;;;;;24.90;52.32;98124.75;4896694;28;102305;-90
2021/07/28 05:32:21;;;;;;;;;9.67;8.00;;;;;24.90;52.39;98118.41;4880874;28;102295;-90
2021/07/28 05:34:51;;;;;;;;;8.00;7.00;;;;;24.91;52.35;98120.00;4881746;28;103456;-90
2021/07/28 05:37:19;;;;;;;;;8.00;8.00;;;;;24.88;52.35;98125.03;4908524;28;102279;-90
2021/07/28 05:39:46;;;;;;;;;8.00;7.67;;;;;24.88;52.53;98115.94;4872845;28;102802;-90
2021/07/28 05:42:13;;;;;;;;;9.67;8.00;;;;;24.87;52.56;98112.34;4901197;28;102312;-90
2021/07/28 05:44:40;;;;;;;;;7.67;7.00;;;;;24.87;52.44;98115.09;4923684;28;108301;-90
2021/07/28 05:47:08;;;;;;;;;7.00;7.00;;;;;24.87;52.38;98115.09;4912518;28;102350;-90
2021/07/28 05:49:35;;;;;;;;;6.67;6.67;;;;;24.87;52.66;98105.97;4893730;28;102148;-90
2021/07/28 05:52:02;;;;;;;;;6.00;6.00;;;;;24.87;52.40;98095.75;4907454;28;102184;-90
2021/07/28 05:54:29;;;;;;;;;6.00;6.00;;;;;24.86;52.55;98105.16;4891930;28;103710;-90
2021/07/28 05:56:57;;;;;;;;;7.67;6.00;;;;;24.85;52.68;98100.75;4906018;28;103176;-90
2021/07/28 05:59:24;;;;;;;;;7.33;7.00;;;;;24.86;52.55;98109.88;4916342;28;102093;-90
2021/07/28 06:01:55;;;;;;;;;7.00;6.33;;;;;24.84;52.91;98104.63;4913203;28;102181;-91
2021/07/28 06:04:23;;;;;;;;;9.00;9.00;;;;;24.84;52.68;98107.41;4905368;28;103293;-90
2021/07/28 06:06:50;;;;;;;;;10.67;8.67;;;;;24.86;52.63;98107.09;4909012;28;102237;-90
2021/07/28 06:09:17;;;;;;;;;7.33;6.33;;;;;24.87;52.54;98103.22;4890021;28;102439;-90
2021/07/28 06:11:44;;;;;;;;;7.00;7.00;;;;;24.86;52.52;98113.47;4909484;28;102140;-90
2021/07/28 06:14:12;;;;;;;;;9.00;7.33;;;;;24.87;52.48;98120.63;4928786;28;108252;-90
2021/07/28 06:16:39;;;;;;;;;8.33;8.33;;;;;24.87;52.66;98109.56;4907728;28;103075;-90
2021/07/28 06:19:06;;;;;;;;;7.00;7.00;;;;;24.89;52.87;98109.28;4907450;28;102059;-90
2021/07/28 06:21:35;;;;;;;;;8.33;7.00;;;;;24.89;52.56;98112.03;4903679;28;102146;-90
2021/07/28 06:24:02;;;;;;;;;6.33;6.33;;;;;24.91;52.59;98114.47;4873183;28;103603;-90
2021/07/28 06:26:29;;;;;;;;;7.00;7.00;;;;;24.91;52.86;98120.00;4882922;28;102353;-90
2021/07/28 06:28:56;;;;;;;;;11.00;9.33;;;;;24.92;52.82;98116.13;4917112;28;102090;-90
2021/07/28 06:31:23;;;;;;;;;7.67;7.33;;;;;24.92;52.88;98122.47;4904225;28;102428;-90
2021/07/28 06:33:51;;;;;;;;;7.00;6.00;;;;;24.94;52.64;98122.19;4911232;28;103612;-90
2021/07/28 06:36:18;;;;;;;;;9.00;8.00;;;;;24.95;52.73;98118.31;4923370;28;103637;-90
2021/07/28 06:38:45;;;;;;;;;7.67;7.00;;;;;24.95;52.74;98121.88;4906673;28;102097;-90
2021/07/28 06:41:12;;;;;;;;;7.00;7.00;;;;;24.97;52.89;98121.56;4914195;28;102241;-90
2021/07/28 06:43:39;;;;;;;;;8.00;8.00;;;;;24.98;52.82;98114.91;4913103;28;103379;-90
2021/07/28 06:46:07;;;;;;;;;7.67;6.33;;;;;24.98;52.94;98121.28;4892714;28;102122;-90
2021/07/28 06:48:34;;;;;;;;;9.67;9.00;;;;;24.99;52.72;98120.13;4928478;28;110101;-90
2021/07/28 06:51:01;;;;;;;;;8.00;7.33;;;;;24.99;52.75;98116.56;4901905;28;102332;-90
2021/07/28 06:53:28;;;;;;;;;6.67;6.33;;;;;25.00;52.84;98118.19;4888509;28;103384;-90
2021/07/28 06:55:56;;;;;;;;;7.00;6.00;;;;;25.00;52.71;98112.66;4914054;28;101714;-90
2021/07/28 06:58:23;;;;;;;;;7.00;6.33;;;;;25.00;52.74;98107.94;4893055;28;102550;-90
2021/07/28 07:00:50;;;;;;;;;6.00;6.00;;;;;25.01;52.99;98104.06;4906213;28;103468;-90
2021/07/28 07:03:18;;;;;;;;;7.67;7.00;;;;;25.02;52.85;98102.09;4915101;28;104376;-90
2021/07/28 07:05:48;;;;;;;;;8.67;7.33;;;;;25.02;52.95;98104.88;4906140;28;106958;-90
2021/07/28 07:08:16;;;;;;;;;7.33;7.00;;;;;25.03;52.62;98101.00;4916159;28;102093;-90
2021/07/28 07:10:43;;;;;;;;;8.00;6.00;;;;;25.04;52.95;98103.44;4912864;28;103182;-90
2021/07/28 07:13:10;;;;;;;;;10.00;9.00;;;;;25.05;52.93;98101.47;4896251;28;103828;-90
2021/07/28 07:15:37;;;;;;;;;6.00;6.00;;;;;25.03;52.90;98099.03;4915167;28;107683;-90
2021/07/28 07:18:05;;;;;;;;;8.00;7.33;;;;;25.03;52.87;98090.75;4931912;28;103513;-90
2021/07/28 07:20:32;;;;;;;;;8.67;8.33;;;;;25.05;52.86;98091.25;4903511;28;102165;-90
2021/07/28 07:22:59;;;;;;;;;9.00;8.00;;;;;25.06;52.95;98083.75;4913042;28;103600;-90
2021/07/28 07:25:27;;;;;;;;;6.00;6.00;;;;;25.06;53.04;98086.53;4912630;28;102221;-90
2021/07/28 07:27:54;;;;;;;;;6.00;6.00;;;;;25.06;53.20;98097.59;4911424;28;102049;-90
2021/07/28 07:30:21;;;;;;;;;9.33;8.67;;;;;25.06;53.04;98084.59;4914423;28;103182;-91
2021/07/28 07:35:39;;;;;;;;;9.33;7.00;;;;;25.08;53.16;98081.53;4793089;28;105218;-91
2021/07/28 07:38:07;;;;;;;;;8.00;8.00;;;;;25.09;53.08;98085.91;4916111;28;101820;-90
2021/07/28 07:40:34;;;;;;;;;7.00;7.00;;;;;25.09;53.04;98083.13;4904905;28;102651;-90
2021/07/28 07:43:01;;;;;;;;;6.33;6.00;;;;;25.09;53.07;98081.19;4895984;28;103888;-90
2021/07/28 07:45:28;;;;;;;;;7.33;6.33;;;;;25.10;52.95;98069.00;4918632;28;102027;-90
2021/07/28 07:47:56;;;;;;;;;8.33;7.00;;;;;25.10;53.12;98074.53;4925226;28;103183;-90
2021/07/28 07:50:23;;;;;;;;;7.33;7.00;;;;;25.10;53.38;98068.19;4908052;28;101878;-90
2021/07/28 07:52:50;;;;;;;;;9.67;8.67;;;;;25.11;53.10;98075.38;4911356;28;103596;-86
2021/07/28 07:55:17;;;;;;;;;6.67;6.00;;;;;25.12;53.08;98077.00;4919902;28;102177;-90
2021/07/28 07:57:44;;;;;;;;;6.00;6.00;;;;;25.13;53.05;98064.78;4902592;28;104983;-90
2021/07/28 08:00:12;;;;;;;;;7.00;6.00;;;;;25.14;53.32;98063.66;4916183;28;102504;-90
2021/07/28 08:02:39;;;;;;;;;8.33;7.33;;;;;25.12;53.43;98063.19;4886246;28;103395;-90
2021/07/28 08:05:07;;;;;;;;;7.00;6.00;;;;;25.15;53.33;98065.31;4882272;28;102345;-90
2021/07/28 08:07:34;;;;;;;;;9.33;7.00;;;;;25.15;53.01;98059.78;4923261;28;104730;-90
2021/07/28 08:10:02;;;;;;;;;6.67;6.00;;;;;25.15;53.11;98065.31;4914555;28;102800;-90
2021/07/28 08:12:29;;;;;;;;;7.00;7.00;;;;;25.16;53.44;98067.78;4890701;28;103819;-90
2021/07/28 08:14:56;;;;;;;;;7.00;7.00;;;;;25.17;53.35;98052.78;4922869;28;102190;-89
2021/07/28 08:17:23;;;;;;;;;9.33;7.67;;;;;25.18;53.12;98053.63;4907799;28;101952;-89
2021/07/28 08:19:51;;;;;;;;;6.67;5.33;;;;;25.17;53.31;98054.78;4912625;28;102285;-89
2021/07/28 08:22:18;;;;;;;;;6.33;6.00;;;;;25.18;53.21;98043.38;4922317;28;103978;-89
2021/07/28 08:24:45;;;;;;;;;6.67;6.67;;;;;25.22;53.30;98060.16;4907516;28;101866;-89
2021/07/28 08:27:12;;;;;;;;;8.00;6.67;;;;;25.20;53.27;98051.38;4911028;28;102298;-89
2021/07/28 08:29:39;;;;;;;;;5.00;4.67;;;;;25.22;53.30;98047.16;4918594;28;102379;-89
2021/07/28 08:32:06;;;;;;;;;7.00;7.00;;;;;25.22;53.41;98049.09;4904696;28;103907;-89
2021/07/28 08:34:34;;;;;;;;;8.33;6.67;;;;;25.23;53.49;98042.44;4912587;28;101820;-89
2021/07/28 08:37:01;;;;;;;;;7.00;6.33;;;;;25.25;53.46;98051.28;4920172;28;101716;-89
2021/07/28 08:39:29;;;;;;;;;7.00;6.00;;;;;25.26;53.43;98041.84;4902726;28;102149;-89
2021/07/28 08:41:59;;;;;;;;;6.67;6.00;;;;;25.27;53.45;98043.47;4920440;28;103581;-89
2021/07/28 08:44:26;;;;;;;;;5.00;5.00;;;;;25.28;53.42;98042.34;4886870;28;103193;-89
2021/07/28 08:46:54;;;;;;;;;6.00;6.00;;;;;25.29;53.38;98049.53;4885883;28;102212;-90
2021/07/28 08:49:21;;;;;;;;;5.67;5.67;;;;;25.30;53.36;98045.63;4908805;28;102214;-89
2021/07/28 08:51:48;;;;;;;;;7.00;7.00;;;;;25.31;53.39;98044.47;4899605;28;103475;-90
2021/07/28 08:54:15;;;;;;;;;6.00;6.00;;;;;25.32;53.20;98049.72;4886742;28;102626;-90
2021/07/28 08:56:42;;;;;;;;;6.00;5.00;;;;;25.32;53.20;98051.66;4913795;28;102182;-90
2021/07/28 08:59:29;;;;;;;;;7.00;6.00;;;;;25.33;53.07;98048.59;4895850;28;102150;-90
2021/07/28 09:01:57;;;;;;;;;5.33;4.67;;;;;25.35;53.34;98047.47;4864235;28;108091;-90
2021/07/28 09:04:24;;;;;;;;;6.00;6.00;;;;;25.38;53.15;98057.91;4898856;28;101894;-90
2021/07/28 09:06:52;;;;;;;;;8.33;7.33;;;;;25.38;53.19;98047.66;4923022;28;102159;-89
2021/07/28 09:09:19;;;;;;;;;6.00;4.00;;;;;25.39;53.21;98054.03;4909475;28;104326;-90
2021/07/28 09:12:00;;;;;;;;;7.67;6.00;;;;;25.40;53.37;98041.81;4896315;28;108646;-90
2021/07/28 09:14:31;;;;;;;;;5.33;5.00;;;;;25.42;53.30;98043.13;4853638;28;102100;-90
2021/07/28 09:17:19;;;;;;;;;6.33;5.00;;;;;25.41;53.47;98047.03;4905010;28;102268;-90
2021/07/28 09:19:47;;;;;;;;;7.00;6.33;;;;;25.44;53.26;98045.59;4893744;28;102182;-90
2021/07/28 09:22:39;;;;;;;;;7.00;5.33;;;;;25.44;53.21;98040.06;4869927;28;109381;-90
2021/07/28 09:25:17;;;;;;;;;5.67;5.00;;;;;25.46;53.23;98049.69;4910962;28;102014;-89
2021/07/28 09:27:49;;;;;;;;;5.33;4.67;;;;;25.46;53.10;98044.16;4901394;28;102121;-90
2021/07/28 09:30:37;;;;;;;;;5.33;4.33;;;;;25.48;53.24;98036.38;4903665;28;102344;-90
2021/07/28 09:33:06;;;;;;;;;6.33;5.00;;;;;25.48;53.29;98036.38;4855237;28;108172;-90
2021/07/28 09:35:55;;;;;;;;;6.00;5.67;;;;;25.50;53.11;98039.63;4908244;28;102591;-90
2021/07/28 09:38:48;;;;;;;;;5.00;5.00;;;;;25.51;53.34;98049.56;4914495;28;102131;-88
2021/07/28 09:41:27;;;;;;;;;8.00;5.00;;;;;25.52;53.21;98037.38;4898358;28;102200;-90
2021/07/28 09:44:02;;;;;;;;;4.00;4.00;;;;;25.53;53.25;98044.53;4902578;28;108433;-90
2021/07/28 09:46:30;;;;;;;;;5.67;5.33;;;;;25.55;53.09;98035.97;4894326;28;102600;-90
2021/07/28 09:49:04;;;;;;;;;5.33;5.33;;;;;25.56;53.24;98043.97;4914270;28;101977;-90
2021/07/28 09:51:39;;;;;;;;;5.00;5.00;;;;;25.56;52.98;98041.19;4906885;28;104609;-90
2021/07/28 09:54:06;;;;;;;;;6.33;5.67;;;;;25.59;53.10;98042.50;4888798;28;103079;-90
2021/07/28 09:56:56;;;;;;;;;5.00;5.00;;;;;25.60;53.12;98027.53;4920910;28;101879;-90
2021/07/28 09:59:23;;;;;;;;;5.33;5.33;;;;;25.61;53.05;98035.53;4888104;28;102542;-91
2021/07/28 10:01:51;;;;;;;;;5.67;4.67;;;;;25.62;53.08;98039.13;4910509;28;101820;-90
2021/07/28 10:04:20;;;;;;;;;6.00;5.00;;;;;25.63;53.14;98044.34;4912274;28;107317;-90
2021/07/28 10:06:48;;;;;;;;;5.00;4.67;;;;;25.65;53.06;98032.97;4890668;28;102360;-89
2021/07/28 10:09:17;;;;;;;;;4.33;3.33;;;;;25.66;53.17;98040.97;4910759;28;102089;-90
2021/07/28 10:11:46;;;;;;;;;6.67;5.00;;;;;25.67;53.05;98041.75;4919949;28;102167;-90
2021/07/28 10:14:17;;;;;;;;;5.67;5.00;;;;;25.67;53.07;98044.53;4907219;28;103405;-90
2021/07/28 10:16:44;;;;;;;;;5.00;4.67;;;;;25.67;53.14;98034.28;4907377;28;102101;-90
2021/07/28 10:19:12;;;;;;;;;6.00;6.00;;;;;25.70;53.21;98035.63;4910317;28;101916;-90
2021/07/28 10:21:43;;;;;;;;;5.33;4.00;;;;;25.69;53.20;98036.75;4908063;28;102136;-90
2021/07/28 10:24:12;;;;;;;;;6.67;5.33;;;;;25.70;53.23;98030.06;4891706;28;103364;-90
2021/07/28 10:26:40;;;;;;;;;6.00;5.00;;;;;25.69;53.04;98029.25;4915756;28;101956;-90
2021/07/28 10:29:08;;;;;;;;;4.67;4.67;;;;;25.72;53.15;98036.94;4902733;28;104875;-90
2021/07/28 10:31:49;;;;;;;;;5.00;5.00;;;;;25.73;53.01;98029.44;4904944;28;102195;-89
2021/07/28 10:34:30;;;;;;;;;5.00;5.00;;;;;25.73;53.16;98027.50;4899064;28;104679;-90
2021/07/28 10:37:01;;;;;;;;;7.00;4.67;;;;;25.74;53.09;98034.69;4885733;28;102272;-90
2021/07/28 10:39:47;;;;;;;;;5.33;5.00;;;;;25.76;53.24;98029.63;4884548;28;104170;-90
2021/07/28 10:42:18;;;;;;;;;5.33;4.33;;;;;25.75;53.01;98027.19;4920941;28;102118;-90
2021/07/28 10:44:57;;;;;;;;;4.33;4.33;;;;;25.77;53.04;98031.28;4914111;28;103581;-90
2021/07/28 10:47:37;;;;;;;;;5.00;5.00;;;;;25.78;53.05;98032.09;4896441;28;102042;-89
2021/07/28 10:50:22;;;;;;;;;4.67;4.67;;;;;25.79;53.11;98030.97;4918805;28;102192;-90
2021/07/28 10:52:50;;;;;;;;;5.67;4.67;;;;;25.80;53.06;98026.25;4929238;28;103387;-90
2021/07/28 10:55:19;;;;;;;;;5.33;5.33;;;;;25.81;53.10;98022.31;4908961;28;103631;-82
2021/07/28 10:58:09;;;;;;;;;3.67;3.00;;;;;25.81;53.17;98028.69;4903297;28;101878;-82
2021/07/28 11:00:39;;;;;;;;;3.00;3.00;;;;;25.81;53.12;98027.84;4851790;28;102753;-83
2021/07/28 11:03:12;;;;;;;;;4.00;4.00;;;;;25.82;52.97;98024.78;4905926;28;102041;-82
2021/07/28 11:05:41;;;;;;;;;6.00;5.33;;;;;25.85;53.04;98023.34;4916811;28;103493;-83
2021/07/28 11:08:09;;;;;;;;;4.00;4.00;;;;;25.83;53.02;98018.13;4925606;28;102288;-83
2021/07/28 11:10:46;;;;;;;;;6.33;5.00;;;;;25.84;52.90;98014.22;4912218;28;102274;-82
2021/07/28 11:13:17;;;;;;;;;5.00;5.00;;;;;25.85;53.09;98017.81;4900398;28;102659;-83
2021/07/28 11:16:06;;;;;;;;;3.33;3.33;;;;;25.87;53.17;98018.31;4914048;28;103555;-83
2021/07/28 11:18:35;;;;;;;;;4.33;4.33;;;;;25.87;53.16;98004.44;4854351;28;102711;-82
2021/07/28 11:21:11;;;;;;;;;4.00;4.00;;;;;25.87;53.11;98016.34;4892491;28;103240;-83
2021/07/28 11:23:48;;;;;;;;;6.33;6.00;;;;;25.88;53.18;98009.69;4924986;28;102801;-83
2021/07/28 11:26:26;;;;;;;;;5.00;5.00;;;;;25.89;52.99;98014.09;4917827;28;103560;-82
2021/07/28 11:29:05;;;;;;;;;5.33;4.00;;;;;25.90;53.21;98015.72;4905925;28;102122;-82
2021/07/28 11:31:33;;;;;;;;;4.00;3.67;;;;;25.90;53.17;98010.19;4853682;28;101845;-82
2021/07/28 11:34:05;;;;;;;;;4.33;3.33;;;;;25.91;53.14;98005.47;4922375;28;103119;-83
2021/07/28 11:36:33;;;;;;;;;5.67;5.00;;;;;25.91;53.12;98005.47;4908308;28;103832;-82
2021/07/28 11:39:08;;;;;;;;;5.33;4.33;;;;;25.91;52.88;98005.47;4915321;28;102355;-83
2021/07/28 11:41:35;;;;;;;;;4.00;4.00;;;;;25.94;53.08;98002.03;4922622;28;102112;-83